createdAt,value
2019-03-19T09:39:17.868Z,27.89
2019-03-19T09:40:17.848Z,26.47
2019-03-19T09:41:17.831Z,27.66
2019-03-19T09:42:17.823Z,27.92
2019-03-19T09:43:17.823Z,26.69
2019-03-19T09:44:17.798Z,29.30
2019-03-19T09:45:17.784Z,26.59
2019-03-19T09:46:18.643Z,26.78
2019-03-19T09:47:17.762Z,26.18
2019-03-19T09:48:17.768Z,27.93
2019-03-19T09:49:17.742Z,25.79
2019-03-19T09:50:17.753Z,25.49
2019-03-19T09:51:17.717Z,26.52
2019-03-19T09:52:17.707Z,28.25
2019-03-19T09:53:18.757Z,30.83
2019-03-19T09:54:17.684Z,32.75
2019-03-19T09:55:17.670Z,34.63
2019-03-19T09:56:17.663Z,33.85
2019-03-19T09:57:17.650Z,35.19
2019-03-19T09:58:17.636Z,36.35
2019-03-19T09:59:26.840Z,36.79
2019-03-19T10:00:18.617Z,37.77
2019-03-19T10:01:17.603Z,39.15
2019-03-19T10:02:17.592Z,39.08
2019-03-19T10:03:17.581Z,38.92
2019-03-19T10:04:17.586Z,36.89
2019-03-19T10:05:17.558Z,33.36
2019-03-19T10:06:17.547Z,33.72
2019-03-19T10:07:17.536Z,33.20
2019-03-19T10:08:17.523Z,35.16
2019-03-19T10:09:17.575Z,35.36
2019-03-19T10:10:17.576Z,36.16
2019-03-19T10:11:17.488Z,32.17
2019-03-19T10:12:17.477Z,30.01
2019-03-19T10:13:17.468Z,29.22
2019-03-19T10:14:17.475Z,29.58
2019-03-19T10:15:17.450Z,29.36
2019-03-19T10:16:17.434Z,29.57
2019-03-19T10:17:17.421Z,28.69
2019-03-19T10:18:17.409Z,29.27
2019-03-19T10:19:17.417Z,31.31
2019-03-19T10:20:18.078Z,32.97
2019-03-19T10:21:17.376Z,30.02
2019-03-19T10:22:17.365Z,30.95
2019-03-19T10:23:17.353Z,31.62
2019-03-19T10:24:17.358Z,34.22
2019-03-19T10:25:17.334Z,34.44
2019-03-19T10:26:17.316Z,34.44
2019-03-19T10:27:19.567Z,33.84
2019-03-19T10:28:17.318Z,34.59
2019-03-19T10:29:17.310Z,35.26
2019-03-19T10:30:17.274Z,35.88
2019-03-19T10:31:17.266Z,35.73
2019-03-19T10:32:17.250Z,33.57
2019-03-19T10:33:17.238Z,32.95
2019-03-19T10:34:17.228Z,34.32
2019-03-19T10:35:17.235Z,36.27
2019-03-19T10:36:17.206Z,36.24
2019-03-19T10:37:17.194Z,36.86
2019-03-19T10:38:17.181Z,36.59
2019-03-19T10:39:17.174Z,38.99
2019-03-19T10:40:17.177Z,40.45
2019-03-19T10:41:17.146Z,41.44
2019-03-19T10:42:17.136Z,43.10
2019-03-19T10:43:17.126Z,43.23
2019-03-19T10:44:17.113Z,43.23
2019-03-19T10:45:17.123Z,43.18
2019-03-19T10:46:17.092Z,38.89
2019-03-19T10:47:17.077Z,38.42
2019-03-19T10:48:17.065Z,35.28
2019-03-19T10:49:17.054Z,31.88
2019-03-19T10:50:17.070Z,33.12
2019-03-19T10:51:17.034Z,29.47
2019-03-19T10:52:17.027Z,28.83
2019-03-19T10:53:17.007Z,28.24
2019-03-19T10:54:16.999Z,27.44
2019-03-19T10:55:17.005Z,28.04
2019-03-19T10:56:16.975Z,26.43
2019-03-19T10:57:16.962Z,26.53
2019-03-19T10:58:16.951Z,29.48
2019-03-19T10:59:16.940Z,28.38
2019-03-19T11:00:16.953Z,28.07
2019-03-19T11:01:16.920Z,28.75
2019-03-19T11:02:16.906Z,27.43
2019-03-19T11:03:16.898Z,28.52
2019-03-19T16:06:46.819Z,45.67
2019-03-19T16:07:46.807Z,45.79
2019-03-19T16:08:46.778Z,45.89
2019-03-19T16:09:46.766Z,45.87
2019-03-19T16:10:46.752Z,45.67
2019-03-19T16:11:46.744Z,45.67
2019-03-19T16:12:46.757Z,45.98
2019-03-19T16:13:46.718Z,45.16
2019-03-19T16:14:46.752Z,45.06
2019-03-19T16:15:46.695Z,45.36
2019-03-19T16:16:46.687Z,45.69
2019-03-19T16:17:46.697Z,46.92
2019-03-19T16:18:46.677Z,46.61
2019-03-19T16:19:46.648Z,46.51
2019-03-19T16:20:46.639Z,47.22
2019-03-19T16:21:47.595Z,46.51
2019-03-19T16:22:46.619Z,46.33
2019-03-19T16:23:46.631Z,46.73
2019-03-19T16:24:46.591Z,46.94
2019-03-19T16:25:46.579Z,47.45
2019-03-19T16:26:46.570Z,48.36
2019-03-19T16:27:46.559Z,47.75
2019-03-19T16:28:46.563Z,47.86
2019-03-19T16:29:46.535Z,48.39
2019-03-19T16:30:46.528Z,47.57
2019-03-19T16:31:50.883Z,48.39
2019-03-19T16:32:46.501Z,48.59
2019-03-19T16:33:46.508Z,48.90
2019-03-19T16:34:46.476Z,48.90
2019-03-19T16:35:46.465Z,49.10
2019-03-19T16:36:46.454Z,49.10
2019-03-19T16:37:46.441Z,48.31
2019-03-19T16:38:46.453Z,49.13
2019-03-19T16:39:46.428Z,48.10
2019-03-19T16:40:46.412Z,48.59
2019-03-19T16:41:46.395Z,48.51
2019-03-19T16:42:46.399Z,49.00
2019-03-19T16:43:46.373Z,49.10
2019-03-19T16:44:46.378Z,49.63
2019-03-19T16:45:46.348Z,49.54
2019-03-19T16:46:46.343Z,48.39
2019-03-19T16:47:46.327Z,49.51
2019-03-19T16:48:46.344Z,49.13
2019-03-19T16:49:46.335Z,49.54
2019-03-19T16:50:46.296Z,49.00
2019-03-19T16:51:46.286Z,48.72
2019-03-19T16:52:46.269Z,49.84
2019-03-19T16:53:46.258Z,50.15
2019-03-19T16:54:46.265Z,49.22
2019-03-19T16:55:46.237Z,50.25
2019-03-19T16:56:46.225Z,49.54
2019-03-19T16:57:46.208Z,49.54
2019-03-19T16:58:46.200Z,50.35
2019-03-19T16:59:46.211Z,50.25
2019-03-19T17:00:46.180Z,50.45
2019-03-19T17:01:46.168Z,49.43
2019-03-19T17:02:46.156Z,50.58
2019-03-19T17:03:46.139Z,50.58
2019-03-19T17:04:46.132Z,50.17
2019-03-19T17:05:46.142Z,51.70
2019-03-19T17:06:46.105Z,51.60
2019-03-19T17:07:46.098Z,51.19
2019-03-19T17:08:46.082Z,52.22
2019-03-19T17:09:46.090Z,51.19
2019-03-19T17:10:46.079Z,51.53
2019-03-19T17:11:46.048Z,50.99
2019-03-19T17:12:46.036Z,52.34
2019-03-19T17:13:46.022Z,51.93
2019-03-19T17:14:46.010Z,52.34
2019-03-19T17:15:46.020Z,52.34
2019-03-19T17:16:45.987Z,52.57
2019-03-19T17:17:45.977Z,52.44
2019-03-19T17:18:45.967Z,52.57
2019-03-19T17:19:45.953Z,52.67
2019-03-19T17:20:45.965Z,52.87
2019-03-19T17:21:45.933Z,52.39
2019-03-19T17:22:45.918Z,52.39
2019-03-19T17:23:45.909Z,52.57
2019-03-19T17:24:45.895Z,54.72
2019-03-19T17:25:45.884Z,52.90
2019-03-19T17:26:45.894Z,54.21
2019-03-19T17:27:45.859Z,52.70
2019-03-19T17:28:45.849Z,52.59
2019-03-19T17:29:45.837Z,54.23
2019-03-19T17:30:45.827Z,53.82
2019-03-19T17:31:45.834Z,54.03
2019-03-19T17:32:45.802Z,53.92
2019-03-19T17:33:45.792Z,54.13
2019-03-19T17:34:45.817Z,54.05
2019-03-19T17:35:45.769Z,54.33
2019-03-19T17:36:45.779Z,54.54
2019-03-19T17:37:45.748Z,55.36
2019-03-19T17:38:45.733Z,54.36
2019-03-19T17:39:45.725Z,55.18
2019-03-19T17:40:45.710Z,54.46
2019-03-19T17:41:45.718Z,54.57
2019-03-19T17:42:45.689Z,54.16
2019-03-19T17:43:45.678Z,54.49
2019-03-19T17:44:45.665Z,54.38
2019-03-19T17:45:45.653Z,55.30
2019-03-19T17:46:45.661Z,55.00
2019-03-19T17:47:45.631Z,55.33
2019-03-19T17:48:45.618Z,56.15
2019-03-19T17:49:45.605Z,57.66
2019-03-19T17:50:45.595Z,56.02
2019-03-19T17:51:45.584Z,57.07
2019-03-19T17:52:45.644Z,56.15
2019-03-19T17:53:45.558Z,56.35
2019-03-19T17:54:45.548Z,56.46
2019-03-19T17:55:45.535Z,56.87
2019-03-19T17:56:45.526Z,56.46
2019-03-19T17:57:45.528Z,56.46
2019-03-19T17:58:45.499Z,56.15
2019-03-19T17:59:45.487Z,56.35
2019-03-19T18:00:45.477Z,56.15
2019-03-19T18:01:45.463Z,56.05
2019-03-19T18:02:45.470Z,56.07
2019-03-19T18:03:45.449Z,56.18
2019-03-19T18:04:45.429Z,56.07
2019-03-19T18:05:45.416Z,56.28
2019-03-19T18:06:45.405Z,57.00
2019-03-19T18:07:45.426Z,57.31
2019-03-19T18:08:45.381Z,57.51
2019-03-19T18:09:45.369Z,56.69
2019-03-19T18:10:45.405Z,56.28
